Time;durP1;ratioP1;P1;durP2;ratioP2;P2;SDS_P1;SDS_P2;PMS_P1;PMS_P2;Temp;Humidity;BMP_temperature;BMP_pressure;BME280_temperature;BME280_humidity;BME280_pressure;Samples;Min_cycle;Max_cycle;Signal;HPM_P1;HPM_P2
2023/09/08 00:01:15;;;;;;;19.55;11.00;;;17.90;99.90;;;;;;5007510;28;20045;-55
2023/09/08 00:03:41;;;;;;;17.42;11.70;;;17.90;99.90;;;;;;5008411;28;20127;-55
2023/09/08 00:06:06;;;;;;;16.63;10.90;;;17.90;99.90;;;;;;5008773;28;20037;-55
2023/09/08 00:08:32;;;;;;;20.80;11.02;;;18.00;99.90;;;;;;5010036;28;20044;-56
2023/09/08 00:10:57;;;;;;;16.45;11.02;;;18.00;99.90;;;;;;5019251;28;20037;-55
2023/09/08 00:13:23;;;;;;;14.68;10.68;;;17.90;99.90;;;;;;5006872;28;20042;-55
2023/09/08 00:15:49;;;;;;;17.75;11.05;;;17.80;99.90;;;;;;5008971;28;20798;-54
2023/09/08 00:18:14;;;;;;;18.35;11.23;;;17.80;99.90;;;;;;5009069;28;20519;-55
2023/09/08 00:20:41;;;;;;;19.35;10.48;;;17.80;99.90;;;;;;5006572;28;20382;-55
2023/09/08 00:23:07;;;;;;;13.68;10.23;;;17.70;99.90;;;;;;5007184;28;20045;-56
2023/09/08 00:25:34;;;;;;;17.58;10.82;;;18.20;99.90;;;;;;5011346;28;20038;-56
2023/09/08 00:28:00;;;;;;;15.07;10.35;;;17.80;99.90;;;;;;5009964;28;20525;-55
2023/09/08 00:30:25;;;;;;;16.80;10.77;;;17.70;99.90;;;;;;5003112;28;20064;-54
2023/09/08 00:32:51;;;;;;;15.98;10.60;;;17.80;99.90;;;;;;5013226;28;20041;-54
2023/09/08 00:35:17;;;;;;;14.18;10.43;;;17.70;99.90;;;;;;5007163;28;20433;-55
2023/09/08 00:37:42;;;;;;;16.20;11.25;;;17.70;99.90;;;;;;5005249;28;20037;-55
2023/09/08 00:40:08;;;;;;;14.27;10.40;;;17.60;99.90;;;;;;5010878;28;20141;-55
2023/09/08 00:42:34;;;;;;;14.27;10.32;;;17.60;99.90;;;;;;5008432;28;20041;-56
2023/09/08 00:44:59;;;;;;;17.77;10.52;;;17.60;99.90;;;;;;5000379;28;20329;-54
2023/09/08 00:47:25;;;;;;;19.25;10.95;;;17.60;99.90;;;;;;5007628;28;20037;-56
2023/09/08 00:49:51;;;;;;;19.40;11.13;;;17.70;99.90;;;;;;5012463;28;20153;-54
2023/09/08 00:52:17;;;;;;;19.67;11.20;;;17.80;99.90;;;;;;5005571;28;20092;-55
2023/09/08 00:54:43;;;;;;;14.93;10.75;;;17.70;99.90;;;;;;5001032;28;20038;-54
2023/09/08 00:57:09;;;;;;;17.58;10.90;;;17.60;99.90;;;;;;5006950;28;20044;-54
2023/09/08 00:59:36;;;;;;;17.48;11.68;;;17.50;99.90;;;;;;5000805;28;20801;-56
2023/09/08 01:02:02;;;;;;;16.90;11.23;;;17.40;99.90;;;;;;5001653;28;20034;-55
2023/09/08 01:04:28;;;;;;;18.10;11.32;;;17.50;99.90;;;;;;5001653;28;20042;-54
2023/09/08 01:06:55;;;;;;;19.08;11.20;;;17.50;99.90;;;;;;5012334;28;20112;-55
2023/09/08 01:09:21;;;;;;;18.73;11.48;;;17.50;99.90;;;;;;5005322;28;20794;-56
2023/09/08 01:11:47;;;;;;;16.48;10.70;;;17.50;99.90;;;;;;5005208;28;20064;-55
2023/09/08 01:14:15;;;;;;;17.60;11.90;;;17.50;99.90;;;;;;5008652;28;20073;-54
2023/09/08 01:16:41;;;;;;;20.85;11.30;;;17.40;99.90;;;;;;5012720;28;20033;-55
2023/09/08 01:19:12;;;;;;;24.08;11.15;;;17.40;99.90;;;;;;5002620;28;20398;-56
2023/09/08 01:22:01;;;;;;;17.75;11.27;;;17.30;99.90;;;;;;5005209;28;20036;-54
2023/09/08 01:24:55;;;;;;;17.42;10.80;;;17.10;99.90;;;;;;5011417;28;20453;-55
2023/09/08 01:27:23;;;;;;;15.65;11.02;;;17.20;99.90;;;;;;5006594;28;20048;-56
2023/09/08 01:29:50;;;;;;;18.30;11.30;;;17.20;99.90;;;;;;5010308;28;20073;-56
2023/09/08 01:32:16;;;;;;;17.70;11.25;;;17.20;99.90;;;;;;5009731;28;20522;-56
2023/09/08 01:34:42;;;;;;;16.92;10.88;;;17.10;99.90;;;;;;5004828;28;20172;-55
2023/09/08 01:37:08;;;;;;;16.60;11.32;;;17.10;99.90;;;;;;5007170;28;20132;-55
2023/09/08 01:39:33;;;;;;;16.25;11.05;;;17.20;99.90;;;;;;5004887;28;20401;-56
2023/09/08 01:41:59;;;;;;;17.02;11.40;;;;;;;;;;5012132;28;20053;-55
2023/09/08 01:44:26;;;;;;;15.85;10.80;;;;;;;;;;5007375;28;20041;-54
2023/09/08 01:46:56;;;;;;;18.77;10.75;;;;;;;;;;5006401;28;20026;-55
2023/09/08 01:49:23;;;;;;;26.20;11.77;;;;;;;;;;5014461;28;20147;-54
2023/09/08 01:51:50;;;;;;;17.30;10.98;;;16.00;99.90;;;;;;5004048;28;20038;-55
2023/09/08 01:54:16;;;;;;;15.93;11.10;;;17.30;99.90;;;;;;5010929;28;20030;-56
2023/09/08 01:56:41;;;;;;;18.08;11.10;;;17.20;99.90;;;;;;5003031;28;20034;-55
2023/09/08 01:59:07;;;;;;;16.63;10.57;;;17.00;99.90;;;;;;5010099;28;20030;-54
2023/09/08 02:01:32;;;;;;;18.25;11.43;;;17.00;99.90;;;;;;5009446;28;20044;-56
2023/09/08 02:03:58;;;;;;;18.00;11.80;;;17.00;99.90;;;;;;5002719;28;20323;-55
2023/09/08 02:06:24;;;;;;;18.70;11.38;;;16.90;99.90;;;;;;5016389;28;20042;-55
2023/09/08 02:08:49;;;;;;;21.08;11.05;;;17.00;99.90;;;;;;5004610;28;20038;-54
2023/09/08 02:11:15;;;;;;;20.33;11.07;;;17.00;99.90;;;;;;5002046;28;20045;-56
2023/09/08 02:13:42;;;;;;;18.65;11.35;;;16.90;99.90;;;;;;5006639;28;20044;-56
2023/09/08 02:16:12;;;;;;;16.42;11.45;;;16.90;99.90;;;;;;5002714;28;20034;-55
2023/09/08 02:18:38;;;;;;;17.00;11.57;;;16.80;99.90;;;;;;5011857;28;20355;-54
2023/09/08 02:21:04;;;;;;;16.13;11.40;;;16.90;99.90;;;;;;5014170;28;20052;-55
2023/09/08 02:23:30;;;;;;;17.65;11.00;;;16.80;99.90;;;;;;5007753;28;20510;-55
2023/09/08 02:25:56;;;;;;;18.42;12.07;;;;;;;;;;5011699;28;20033;-55
2023/09/08 02:28:22;;;;;;;18.08;11.43;;;;;;;;;;5015593;28;20053;-55
2023/09/08 02:30:48;;;;;;;18.95;11.80;;;;;;;;;;5005780;28;20034;-55
2023/09/08 02:33:14;;;;;;;20.58;11.70;;;;;;;;;;5006649;28;20037;-55
2023/09/08 02:35:40;;;;;;;17.85;11.48;;;16.80;99.90;;;;;;5014348;28;20548;-55
2023/09/08 02:38:06;;;;;;;15.57;10.88;;;16.90;99.90;;;;;;5014726;28;20041;-54
2023/09/08 02:40:33;;;;;;;16.45;10.88;;;16.90;99.90;;;;;;5011084;28;20045;-54
2023/09/08 02:43:00;;;;;;;17.67;11.20;;;16.70;99.90;;;;;;5009446;28;20061;-55
2023/09/08 02:45:25;;;;;;;16.35;10.93;;;16.60;99.90;;;;;;5010252;28;20755;-55
2023/09/08 02:47:51;;;;;;;15.13;11.15;;;16.50;99.90;;;;;;5011074;28;20060;-56
2023/09/08 02:50:17;;;;;;;19.58;10.38;;;16.60;99.90;;;;;;5008950;28;20040;-55
2023/09/08 02:52:42;;;;;;;15.60;10.73;;;16.50;99.90;;;;;;5009216;28;20489;-54
2023/09/08 02:55:08;;;;;;;15.73;10.52;;;16.50;99.90;;;;;;5011419;28;20030;-55
2023/09/08 02:57:34;;;;;;;17.55;11.48;;;;;;;;;;5028472;28;20026;-55
2023/09/08 02:59:59;;;;;;;16.30;10.77;;;16.50;99.90;;;;;;5032239;28;20524;-55
2023/09/08 03:02:26;;;;;;;19.02;10.93;;;16.50;99.90;;;;;;5027657;28;20043;-55
2023/09/08 03:04:52;;;;;;;16.45;10.70;;;;;;;;;;5026062;28;20440;-56
2023/09/08 03:07:18;;;;;;;16.75;10.73;;;;;;;;;;5033286;28;20098;-56
2023/09/08 03:09:44;;;;;;;15.50;10.88;;;;;;;;;;5026023;28;20647;-54
2023/09/08 03:12:10;;;;;;;16.50;10.88;;;;;;;;;;5027387;28;20037;-55
2023/09/08 03:14:37;;;;;;;18.83;11.00;;;;;;;;;;5025989;28;20094;-56
2023/09/08 03:17:02;;;;;;;21.27;11.55;;;16.40;99.90;;;;;;5037890;28;20491;-55
2023/09/08 03:19:28;;;;;;;14.95;11.15;;;16.50;99.90;;;;;;5019695;28;20025;-55
2023/09/08 03:21:53;;;;;;;15.15;10.77;;;16.40;99.90;;;;;;5007750;28;20088;-55
2023/09/08 03:24:19;;;;;;;16.85;11.50;;;16.30;99.90;;;;;;5018664;28;20076;-55
2023/09/08 03:26:44;;;;;;;20.77;11.80;;;16.30;99.90;;;;;;5005811;28;20037;-54
2023/09/08 03:29:10;;;;;;;14.85;11.27;;;16.30;99.90;;;;;;5004668;28;20125;-56
2023/09/08 03:31:36;;;;;;;16.05;11.27;;;16.40;99.90;;;;;;5005217;28;20029;-53
2023/09/08 03:34:02;;;;;;;17.48;11.32;;;16.30;99.90;;;;;;5013973;28;20370;-54
2023/09/08 03:36:30;;;;;;;17.35;10.75;;;;;;;;;;5007381;28;20116;-54
2023/09/08 03:38:58;;;;;;;18.33;11.45;;;;;;;;;;5013575;28;20133;-55
2023/09/08 03:41:24;;;;;;;17.23;10.90;;;;;;;;;;5004091;28;20037;-56
2023/09/08 03:43:50;;;;;;;14.70;10.93;;;;;;;;;;5005311;28;20409;-55
2023/09/08 03:46:16;;;;;;;17.52;11.88;;;;;;;;;;5008340;28;20048;-55
2023/09/08 03:48:42;;;;;;;18.90;11.57;;;;;;;;;;5010924;28;20030;-55
2023/09/08 03:51:08;;;;;;;18.65;12.57;;;;;;;;;;5006904;28;20634;-54
2023/09/08 03:53:34;;;;;;;18.83;11.40;;;;;;;;;;5001725;28;20109;-55
2023/09/08 03:56:00;;;;;;;17.38;12.07;;;;;;;;;;4998027;28;20041;-56
2023/09/08 03:58:26;;;;;;;20.33;12.00;;;;;;;;;;5022075;28;20041;-54
2023/09/08 04:00:52;;;;;;;18.00;12.35;;;;;;;;;;5006504;28;20047;-55
2023/09/08 04:03:19;;;;;;;18.98;11.80;;;;;;;;;;5006171;28;20041;-55
2023/09/08 04:05:45;;;;;;;17.27;11.68;;;15.40;99.90;;;;;;5008666;28;20566;-56
2023/09/08 04:08:10;;;;;;;19.10;11.57;;;16.20;99.90;;;;;;5016499;28;20103;-55
2023/09/08 04:10:36;;;;;;;18.27;12.20;;;15.90;99.90;;;;;;5004853;28;20037;-54
2023/09/08 04:13:01;;;;;;;20.83;12.35;;;16.10;99.90;;;;;;5017181;28;20030;-53
2023/09/08 04:15:27;;;;;;;22.15;12.75;;;16.10;99.90;;;;;;5006226;28;20117;-56
2023/09/08 04:17:53;;;;;;;17.38;11.98;;;16.10;99.90;;;;;;5011839;28;20041;-55
2023/09/08 04:20:18;;;;;;;21.35;12.35;;;16.00;99.90;;;;;;5008823;28;20026;-55
2023/09/08 04:22:44;;;;;;;19.42;11.70;;;15.90;99.90;;;;;;5011330;28;20049;-53
2023/09/08 04:25:10;;;;;;;21.17;12.40;;;15.90;99.90;;;;;;5016789;28;20099;-56
2023/09/08 04:27:36;;;;;;;19.45;11.90;;;16.10;99.90;;;;;;5027624;28;20627;-56
2023/09/08 04:30:04;;;;;;;21.45;12.55;;;16.00;99.90;;;;;;5027955;28;20034;-55
2023/09/08 04:32:29;;;;;;;17.77;11.65;;;16.00;99.90;;;;;;5029722;28;20559;-55
2023/09/08 04:34:55;;;;;;;19.80;12.52;;;16.00;99.90;;;;;;5016591;28;20065;-56
2023/09/08 04:37:21;;;;;;;18.15;12.90;;;16.20;99.90;;;;;;5032661;28;20092;-56
2023/09/08 04:39:46;;;;;;;19.23;12.18;;;16.20;99.90;;;;;;5022595;28;20049;-54
2023/09/08 04:42:12;;;;;;;16.17;11.50;;;15.70;99.90;;;;;;5026571;28;20049;-54
2023/09/08 04:44:38;;;;;;;18.02;11.93;;;15.70;99.90;;;;;;5024944;28;20521;-55
2023/09/08 04:47:04;;;;;;;19.23;12.50;;;15.70;99.90;;;;;;5022809;28;20124;-55
2023/09/08 04:49:30;;;;;;;17.13;12.40;;;15.70;99.90;;;;;;5014394;28;20037;-54
2023/09/08 04:51:56;;;;;;;19.08;12.88;;;15.70;99.90;;;;;;5008765;28;20143;-55
2023/09/08 04:54:24;;;;;;;19.48;11.82;;;15.80;99.90;;;;;;5000526;28;20135;-52
2023/09/08 04:56:50;;;;;;;20.73;12.38;;;15.80;99.90;;;;;;5002258;28;20029;-54
2023/09/08 04:59:16;;;;;;;18.38;11.40;;;15.70;99.90;;;;;;5008294;28;20084;-54
2023/09/08 05:01:43;;;;;;;18.58;12.60;;;15.70;99.90;;;;;;5004648;28;20034;-55
2023/09/08 05:04:09;;;;;;;19.52;11.95;;;15.70;99.90;;;;;;5002908;28;20390;-55
2023/09/08 05:06:34;;;;;;;18.85;11.93;;;15.70;99.90;;;;;;4997382;28;20052;-55
2023/09/08 05:09:00;;;;;;;19.27;11.93;;;15.50;99.90;;;;;;5007324;28;20050;-56
2023/09/08 05:11:26;;;;;;;18.17;11.38;;;15.60;99.90;;;;;;5007547;28;20049;-54
2023/09/08 05:13:51;;;;;;;22.35;12.38;;;15.80;99.90;;;;;;5010751;28;20038;-55
2023/09/08 05:16:18;;;;;;;18.33;11.30;;;15.80;99.90;;;;;;5010134;28;20038;-55
2023/09/08 05:18:44;;;;;;;19.35;11.52;;;15.70;99.90;;;;;;5012791;28;20438;-55
2023/09/08 05:21:10;;;;;;;21.48;12.13;;;15.60;99.90;;;;;;5006802;28;20126;-55
2023/09/08 05:23:35;;;;;;;17.05;11.13;;;15.50;99.90;;;;;;5020812;28;20136;-54
2023/09/08 05:26:01;;;;;;;18.67;11.27;;;15.70;99.90;;;;;;5024169;28;20095;-54
2023/09/08 05:28:27;;;;;;;17.65;11.00;;;15.70;99.90;;;;;;5022451;28;20728;-55
2023/09/08 05:30:53;;;;;;;15.65;10.57;;;15.60;99.90;;;;;;5022816;28;20038;-56
2023/09/08 05:33:19;;;;;;;18.38;12.50;;;15.40;99.90;;;;;;5030636;28;20452;-55
2023/09/08 05:35:45;;;;;;;20.58;11.63;;;15.60;99.90;;;;;;5019545;28;20049;-56
2023/09/08 05:38:11;;;;;;;24.67;12.68;;;15.60;99.90;;;;;;5011042;28;20046;-54
2023/09/08 05:40:37;;;;;;;16.30;11.27;;;15.90;99.90;;;;;;5009954;28;20409;-56
2023/09/08 05:43:03;;;;;;;17.92;11.52;;;15.80;99.90;;;;;;5001553;28;20530;-56
2023/09/08 05:45:31;;;;;;;20.60;11.60;;;15.80;99.90;;;;;;5003198;28;20034;-55
2023/09/08 05:47:57;;;;;;;18.65;12.32;;;15.80;99.90;;;;;;5011124;28;20033;-56
2023/09/08 05:50:22;;;;;;;19.52;11.35;;;15.80;99.90;;;;;;5000004;28;20037;-56
2023/09/08 05:52:48;;;;;;;21.02;12.80;;;15.80;99.90;;;;;;5023865;28;20030;-54
2023/09/08 05:55:13;;;;;;;20.52;12.63;;;15.80;99.90;;;;;;5003260;28;20393;-56
2023/09/08 05:57:40;;;;;;;21.33;12.32;;;15.90;99.90;;;;;;5018711;28;20033;-55
2023/09/08 06:00:06;;;;;;;18.15;12.43;;;16.00;99.90;;;;;;5032339;28;20043;-56
2023/09/08 06:02:32;;;;;;;21.98;13.10;;;16.10;99.90;;;;;;5030225;28;20064;-56
2023/09/08 06:04:58;;;;;;;24.20;13.32;;;16.10;99.90;;;;;;5030638;28;20452;-54
2023/09/08 06:07:23;;;;;;;19.20;13.57;;;16.10;99.90;;;;;;5027739;28;20392;-55
2023/09/08 06:09:49;;;;;;;20.58;13.55;;;16.20;99.90;;;;;;5034261;28;20037;-55
2023/09/08 06:12:14;;;;;;;23.00;13.82;;;16.30;99.90;;;;;;5031208;28;20033;-55
2023/09/08 06:14:40;;;;;;;21.27;13.50;;;16.40;99.90;;;;;;5035082;28;20040;-55
2023/09/08 06:17:05;;;;;;;20.65;13.60;;;16.50;99.90;;;;;;5028831;28;20099;-56
2023/09/08 06:19:31;;;;;;;20.08;13.93;;;16.50;99.90;;;;;;5028839;28;20033;-55
2023/09/08 06:21:57;;;;;;;23.88;14.75;;;16.60;99.90;;;;;;5025852;28;20113;-56
2023/09/08 06:24:22;;;;;;;23.52;15.25;;;16.70;99.90;;;;;;5027391;28;20033;-56
2023/09/08 06:26:49;;;;;;;25.48;16.13;;;16.80;99.90;;;;;;5036443;28;20061;-55
2023/09/08 06:29:15;;;;;;;23.15;16.70;;;17.00;99.90;;;;;;5030131;28;20029;-54
2023/09/08 06:31:40;;;;;;;37.58;25.48;;;17.10;99.90;;;;;;5026432;28;20037;-55
2023/09/08 06:34:06;;;;;;;78.50;52.25;;;17.30;99.90;;;;;;5024926;28;20033;-56
2023/09/08 06:36:32;;;;;;;49.20;30.88;;;17.50;99.90;;;;;;5028737;28;20080;-55
2023/09/08 06:38:57;;;;;;;31.30;19.45;;;17.60;99.90;;;;;;5032520;28;20042;-55
2023/09/08 06:41:23;;;;;;;27.67;16.20;;;17.80;99.90;;;;;;5033650;28;20497;-55
2023/09/08 06:43:49;;;;;;;21.63;15.00;;;17.80;99.90;;;;;;5031875;28;20763;-55
2023/09/08 06:46:15;;;;;;;22.15;14.73;;;18.00;99.90;;;;;;5033942;28;20116;-55
2023/09/08 06:48:41;;;;;;;22.58;14.75;;;18.00;99.90;;;;;;5029809;28;20340;-54
2023/09/08 06:51:06;;;;;;;21.95;13.65;;;18.10;99.90;;;;;;5031282;28;20044;-55
2023/09/08 06:53:32;;;;;;;21.60;13.60;;;18.30;99.90;;;;;;5040167;28;20037;-55
2023/09/08 06:55:58;;;;;;;19.13;13.15;;;18.40;99.90;;;;;;5034101;28;20054;-56
2023/09/08 06:58:23;;;;;;;25.27;12.80;;;18.50;99.90;;;;;;5039399;28;20560;-55
2023/09/08 07:00:50;;;;;;;20.65;12.32;;;18.70;99.90;;;;;;5035416;28;20045;-55
2023/09/08 07:03:16;;;;;;;17.58;10.85;;;18.80;99.90;;;;;;5028716;28;20431;-54
2023/09/08 07:05:41;;;;;;;20.40;11.10;;;18.90;99.90;;;;;;5029012;28;20033;-55
2023/09/08 07:08:07;;;;;;;15.18;11.05;;;19.00;99.90;;;;;;5035676;28;20056;-55
2023/09/08 07:10:33;;;;;;;16.42;10.07;;;19.10;99.90;;;;;;5061739;28;20608;-55
2023/09/08 07:12:58;;;;;;;17.58;10.48;;;19.20;99.90;;;;;;5030481;28;20052;-55
2023/09/08 07:15:24;;;;;;;19.67;10.40;;;19.30;99.90;;;;;;5029414;28;20059;-54
2023/09/08 07:17:49;;;;;;;16.33;9.45;;;19.30;99.90;;;;;;5032424;28;20041;-55
2023/09/08 07:20:15;;;;;;;13.40;10.20;;;19.40;99.90;;;;;;5032991;28;20124;-55
2023/09/08 07:22:41;;;;;;;14.55;9.35;;;19.60;99.90;;;;;;5031239;28;20060;-56
2023/09/08 07:25:07;;;;;;;14.75;8.70;;;19.60;99.90;;;;;;5056741;28;20040;-56
2023/09/08 07:27:33;;;;;;;14.90;7.85;;;19.70;99.90;;;;;;5026541;28;20048;-55
2023/09/08 07:29:58;;;;;;;12.48;8.32;;;19.90;99.90;;;;;;5027196;28;20041;-55
2023/09/08 07:32:24;;;;;;;15.18;8.23;;;19.90;99.90;;;;;;5023809;28;20034;-55
2023/09/08 07:34:54;;;;;;;16.88;8.35;;;20.10;99.90;;;;;;5028170;28;20076;-55
2023/09/08 07:37:22;;;;;;;10.45;7.95;;;20.10;99.90;;;;;;5032204;28;20752;-55
2023/09/08 07:39:48;;;;;;;15.73;8.52;;;20.20;99.90;;;;;;5023920;28;20124;-55
2023/09/08 07:42:14;;;;;;;25.88;8.70;;;20.20;99.90;;;;;;5026302;28;20712;-54
2023/09/08 07:44:39;;;;;;;16.90;8.35;;;20.30;99.90;;;;;;5028636;28;20079;-55
2023/09/08 07:47:05;;;;;;;15.30;7.90;;;20.40;99.90;;;;;;5035765;28;20541;-54
2023/09/08 07:49:33;;;;;;;17.30;7.88;;;20.60;99.90;;;;;;5035864;28;20535;-55
2023/09/08 07:51:59;;;;;;;14.07;7.97;;;20.60;99.90;;;;;;5031264;28;20029;-55
2023/09/08 07:54:25;;;;;;;13.23;7.82;;;20.60;99.90;;;;;;5060201;28;20377;-55
2023/09/08 07:56:50;;;;;;;15.30;8.75;;;20.80;99.90;;;;;;5030883;28;20083;-55
2023/09/08 07:59:16;;;;;;;14.07;7.60;;;20.80;99.90;;;;;;5026549;28;20396;-56
2023/09/08 08:01:41;;;;;;;13.70;9.82;;;20.90;99.90;;;;;;5031920;28;20064;-56
2023/09/08 08:04:07;;;;;;;43.38;23.92;;;21.00;99.90;;;;;;5030854;28;20124;-56
2023/09/08 08:06:33;;;;;;;14.13;7.45;;;21.10;99.90;;;;;;5026444;28;20686;-55
2023/09/08 08:08:58;;;;;;;12.50;7.80;;;21.20;99.90;;;;;;5028512;28;20037;-55
2023/09/08 08:11:25;;;;;;;13.98;7.43;;;21.20;99.90;;;;;;5029937;28;20041;-54
2023/09/08 08:13:51;;;;;;;13.48;7.50;;;21.40;99.90;;;;;;5029354;28;20117;-55
2023/09/08 08:16:17;;;;;;;15.10;8.35;;;21.40;99.90;;;;;;5028350;28;20099;-56
2023/09/08 08:18:43;;;;;;;10.73;7.55;;;21.50;99.90;;;;;;5034957;28;20070;-55
2023/09/08 08:21:08;;;;;;;15.32;7.68;;;21.60;99.90;;;;;;5034916;28;20270;-56
2023/09/08 08:23:35;;;;;;;14.43;7.18;;;21.60;99.90;;;;;;5027278;28;20139;-55
2023/09/08 08:26:00;;;;;;;11.15;7.07;;;21.70;99.90;;;;;;5022753;28;20717;-55
2023/09/08 08:28:26;;;;;;;13.60;7.55;;;21.80;99.90;;;;;;5022266;28;20029;-56
2023/09/08 08:30:52;;;;;;;14.43;7.75;;;21.90;99.90;;;;;;5016814;28;20055;-55
2023/09/08 08:33:18;;;;;;;13.90;7.45;;;22.00;99.90;;;;;;5005474;28;20037;-55
2023/09/08 08:35:50;;;;;;;11.43;7.20;;;22.00;99.90;;;;;;5015312;28;20037;-55
2023/09/08 08:38:16;;;;;;;13.93;7.85;;;22.10;99.90;;;;;;5010257;28;20464;-54
2023/09/08 08:40:42;;;;;;;11.60;6.82;;;22.10;99.90;;;;;;5013103;28;20037;-55
2023/09/08 08:43:09;;;;;;;15.82;7.63;;;22.20;99.90;;;;;;5014741;28;20132;-57
2023/09/08 08:45:36;;;;;;;10.52;7.15;;;22.20;99.90;;;;;;5010602;28;20529;-55
2023/09/08 08:48:04;;;;;;;11.43;7.22;;;22.30;99.90;;;;;;5014622;28;20446;-55
2023/09/08 08:50:34;;;;;;;13.82;8.02;;;22.40;99.90;;;;;;5012259;28;20393;-55
2023/09/08 08:53:02;;;;;;;15.68;7.60;;;22.50;99.90;;;;;;5008363;28;20033;-55
2023/09/08 08:55:29;;;;;;;11.50;7.30;;;22.50;99.90;;;;;;4989217;28;22059;-56
2023/09/08 08:58:01;;;;;;;14.23;7.20;;;22.60;99.90;;;;;;5018861;28;20037;-55
2023/09/08 09:00:27;;;;;;;13.77;7.60;;;22.80;99.90;;;;;;5009319;28;20052;-56
2023/09/08 09:02:54;;;;;;;14.43;7.38;;;22.80;99.90;;;;;;5006546;28;20042;-55
2023/09/08 09:05:19;;;;;;;16.33;7.80;;;22.80;99.90;;;;;;5010929;28;20040;-56
2023/09/08 09:07:45;;;;;;;18.15;7.85;;;22.90;99.90;;;;;;5013095;28;20041;-54
2023/09/08 09:10:11;;;;;;;15.40;7.80;;;23.00;99.90;;;;;;5013188;28;20048;-56
2023/09/08 09:12:38;;;;;;;15.75;7.45;;;23.00;99.90;;;;;;5012370;28;20397;-56
2023/09/08 09:15:05;;;;;;;16.10;7.30;;;23.00;99.90;;;;;;5008462;28;20033;-56
2023/09/08 09:17:33;;;;;;;16.25;7.10;;;23.20;99.90;;;;;;5012148;28;20124;-55
2023/09/08 09:20:20;;;;;;;11.88;6.97;;;23.20;99.90;;;;;;5019152;28;20041;-56
2023/09/08 09:22:47;;;;;;;21.00;7.72;;;23.20;99.90;;;;;;5025095;28;20499;-55
2023/09/08 09:25:30;;;;;;;13.55;7.32;;;23.30;99.90;;;;;;5013580;28;20102;-55
2023/09/08 09:27:57;;;;;;;15.45;7.22;;;23.40;99.90;;;;;;5015137;28;20319;-55
2023/09/08 09:30:24;;;;;;;13.15;7.40;;;23.40;99.90;;;;;;5014004;28;20042;-55
2023/09/08 09:33:02;;;;;;;16.17;7.30;;;23.50;99.90;;;;;;5012180;28;20057;-56
2023/09/08 09:35:46;;;;;;;12.77;7.20;;;23.50;99.90;;;;;;5014224;28;20453;-56
2023/09/08 09:38:12;;;;;;;11.05;7.38;;;23.50;99.90;;;;;;5013795;28;20048;-55
2023/09/08 09:40:39;;;;;;;15.15;7.53;;;23.70;99.90;;;;;;5005833;28;20430;-55
2023/09/08 09:43:05;;;;;;;13.95;7.50;;;23.80;99.90;;;;;;5016128;28;20468;-55
2023/09/08 09:45:32;;;;;;;13.45;7.53;;;23.90;99.90;;;;;;5013555;28;20041;-56
2023/09/08 09:47:58;;;;;;;12.80;6.97;;;23.80;99.90;;;;;;5016844;28;20361;-55
2023/09/08 09:50:33;;;;;;;13.30;7.25;;;23.80;99.90;;;;;;5015946;28;20587;-55
2023/09/08 09:53:02;;;;;;;13.75;7.20;;;23.90;99.90;;;;;;5013477;28;20187;-55
2023/09/08 09:55:28;;;;;;;14.50;7.40;;;23.90;99.90;;;;;;5012462;28;20057;-55
2023/09/08 09:58:03;;;;;;;12.10;7.00;;;24.00;99.90;;;;;;5016386;28;20123;-54
2023/09/08 10:00:30;;;;;;;12.68;7.68;;;24.10;99.90;;;;;;5012765;28;20037;-56
2023/09/08 10:02:56;;;;;;;16.10;7.47;;;24.10;99.90;;;;;;5019392;28;20056;-56
2023/09/08 10:05:23;;;;;;;13.65;6.95;;;24.10;99.90;;;;;;5007136;28;20342;-56
2023/09/08 10:07:49;;;;;;;17.35;7.22;;;24.20;99.90;;;;;;5011341;28;20571;-57
2023/09/08 10:10:16;;;;;;;14.13;7.38;;;24.20;99.90;;;;;;5013534;28;20044;-56
2023/09/08 10:12:49;;;;;;;12.57;6.85;;;24.30;99.90;;;;;;5008912;28;20136;-56
2023/09/08 10:15:20;;;;;;;10.55;6.97;;;24.30;99.90;;;;;;4993783;28;20025;-56
2023/09/08 10:17:52;;;;;;;17.38;8.73;;;24.40;99.90;;;;;;5005050;28;20072;-55
2023/09/08 10:20:21;;;;;;;13.65;7.22;;;24.40;99.90;;;;;;5005844;28;20018;-54
2023/09/08 10:22:49;;;;;;;15.98;7.85;;;24.40;99.90;;;;;;5003325;28;20034;-55
2023/09/08 10:25:17;;;;;;;13.07;7.18;;;24.40;99.90;;;;;;5008780;28;20703;-56
2023/09/08 10:27:44;;;;;;;15.75;7.32;;;24.50;99.90;;;;;;5002101;28;20122;-55
2023/09/08 10:30:11;;;;;;;12.30;7.30;;;24.50;99.90;;;;;;5035843;28;20093;-55
2023/09/08 10:32:38;;;;;;;16.48;7.28;;;24.50;99.90;;;;;;5037211;28;20497;-56
2023/09/08 10:35:06;;;;;;;12.38;7.72;;;24.60;99.90;;;;;;5005456;28;20041;-56
2023/09/08 10:37:32;;;;;;;14.00;7.57;;;24.50;99.90;;;;;;5006633;28;20037;-56
2023/09/08 10:40:20;;;;;;;15.98;7.45;;;24.50;99.90;;;;;;5010759;28;20061;-56
2023/09/08 10:42:46;;;;;;;15.38;7.15;;;24.50;99.90;;;;;;5009340;28;20037;-53
2023/09/08 10:45:18;;;;;;;13.05;7.70;;;24.50;99.90;;;;;;4998646;28;20038;-56
2023/09/08 10:47:47;;;;;;;15.30;7.35;;;24.70;99.90;;;;;;4989672;28;20058;-56
2023/09/08 10:50:19;;;;;;;12.35;7.25;;;24.80;99.90;;;;;;4998120;28;20034;-56
2023/09/08 10:52:45;;;;;;;14.45;7.40;;;24.80;99.90;;;;;;5005344;28;20563;-55
2023/09/08 10:55:15;;;;;;;12.25;7.20;;;24.90;99.90;;;;;;5002207;28;20091;-55
2023/09/08 10:57:45;;;;;;;10.90;6.70;;;24.80;99.90;;;;;;5008083;28;20034;-55
2023/09/08 11:00:17;;;;;;;10.98;7.47;;;24.90;99.90;;;;;;5007592;28;20030;-55
2023/09/08 11:02:48;;;;;;;11.07;6.85;;;24.90;99.90;;;;;;5005651;28;20074;-56
2023/09/08 11:05:15;;;;;;;11.52;6.65;;;24.90;99.90;;;;;;5005492;28;20061;-56
2023/09/08 11:07:43;;;;;;;11.48;7.07;;;25.00;99.90;;;;;;5004105;28;20444;-55
2023/09/08 11:10:10;;;;;;;12.05;7.18;;;25.00;99.90;;;;;;5009899;28;20469;-56
2023/09/08 11:12:35;;;;;;;11.00;6.15;;;25.00;99.90;;;;;;5008831;28;20543;-55
2023/09/08 11:15:05;;;;;;;11.63;6.85;;;25.00;99.90;;;;;;5008732;28;20042;-56
2023/09/08 11:17:35;;;;;;;13.30;7.38;;;25.10;99.90;;;;;;5011565;28;20328;-56
2023/09/08 11:20:08;;;;;;;11.98;7.25;;;25.20;99.90;;;;;;5010580;28;20216;-56
2023/09/08 11:22:34;;;;;;;;;;;24.60;99.90;;;;;;5005592;28;20161;-55
2023/09/08 11:25:00;;;;;;;11.20;6.88;;;25.20;99.90;;;;;;5007553;28;19992;-56
2023/09/08 11:27:28;;;;;;;11.05;7.03;;;25.30;99.90;;;;;;5005675;28;20134;-56
2023/09/08 11:29:54;;;;;;;17.90;7.40;;;25.30;99.90;;;;;;4995777;28;20038;-57
2023/09/08 11:32:20;;;;;;;12.20;9.60;;;25.30;99.90;;;;;;5004385;28;20037;-55
2023/09/08 11:34:45;;;;;;;13.45;7.85;;;25.40;99.90;;;;;;5006470;28;20034;-56
2023/09/08 11:37:17;;;;;;;11.18;7.45;;;25.40;99.90;;;;;;5009408;28;20049;-57
2023/09/08 11:39:44;;;;;;;8.93;6.75;;;25.40;99.90;;;;;;5007468;28;20116;-56
2023/09/08 11:42:15;;;;;;;14.45;6.97;;;25.30;99.90;;;;;;5006319;28;20053;-56
2023/09/08 11:44:42;;;;;;;14.68;7.22;;;25.30;99.90;;;;;;5007814;28;20639;-56
2023/09/08 11:47:09;;;;;;;12.73;7.25;;;25.40;99.90;;;;;;5005526;28;20038;-55
2023/09/08 11:49:40;;;;;;;10.75;7.28;;;25.50;99.90;;;;;;5006356;28;20107;-56
2023/09/08 11:52:06;;;;;;;14.02;6.85;;;25.40;99.90;;;;;;5004576;28;20026;-57
2023/09/08 11:54:34;;;;;;;14.02;8.15;;;25.50;99.90;;;;;;5008355;28;20044;-55
2023/09/08 11:57:01;;;;;;;9.50;6.60;;;25.60;99.90;;;;;;5007716;28;20057;-56
2023/09/08 11:59:32;;;;;;;11.00;6.85;;;25.60;99.90;;;;;;5025241;28;20045;-57
2023/09/08 12:01:58;;;;;;;11.57;6.90;;;25.70;99.90;;;;;;5028658;28;20505;-56
2023/09/08 12:04:24;;;;;;;12.38;6.68;;;25.70;99.90;;;;;;5027201;28;20044;-56
2023/09/08 12:06:52;;;;;;;12.70;7.28;;;25.60;99.90;;;;;;5027931;28;20037;-56
2023/09/08 12:09:18;;;;;;;13.73;7.13;;;25.70;99.90;;;;;;5029805;28;20087;-57
2023/09/08 12:11:44;;;;;;;8.13;6.47;;;25.70;99.90;;;;;;5027296;28;20116;-56
2023/09/08 12:14:14;;;;;;;12.35;7.25;;;25.70;99.90;;;;;;5025855;28;20128;-55
2023/09/08 12:16:40;;;;;;;15.90;6.93;;;25.70;99.90;;;;;;5018082;28;20078;-56
2023/09/08 12:19:08;;;;;;;12.23;6.85;;;25.90;99.90;;;;;;5024102;28;20033;-56
2023/09/08 12:21:54;;;;;;;11.43;6.70;;;25.80;99.90;;;;;;5025764;28;20037;-56
2023/09/08 12:24:20;;;;;;;14.15;6.40;;;25.90;99.90;;;;;;5027193;28;20112;-56
2023/09/08 12:26:45;;;;;;;9.30;6.70;;;25.90;99.90;;;;;;5033305;28;20144;-56
2023/09/08 12:29:14;;;;;;;10.05;7.10;;;25.90;99.90;;;;;;5026028;28;20131;-56
2023/09/08 12:31:39;;;;;;;9.20;6.63;;;26.20;99.90;;;;;;5023296;28;20029;-57
2023/09/08 12:34:05;;;;;;;11.85;6.53;;;26.10;99.90;;;;;;5014888;28;20055;-57
2023/09/08 12:36:31;;;;;;;11.05;6.68;;;26.10;99.90;;;;;;5025052;28;20072;-55
2023/09/08 12:38:56;;;;;;;11.00;7.15;;;26.20;99.90;;;;;;5028571;28;20032;-56